Time;durP1;ratioP1;P1;durP2;ratioP2;P2;SDS_P1;SDS_P2;PMS_P1;PMS_P2;Temp;Humidity;BMP_temperature;BMP_pressure;BME280_temperature;BME280_humidity;BME280_pressure;Samples;Min_cycle;Max_cycle;Signal;HPM_P1;HPM_P2
2024/01/27 00:01:36;;;;;;;;;35.25;29.50;;;;;12.03;70.66;101886.25;5088873;27;45483;-68
2024/01/27 00:04:02;;;;;;;;;39.50;31.25;;;;;11.94;70.46;101882.38;5082362;27;45972;-68
2024/01/27 00:06:28;;;;;;;;;37.50;31.25;;;;;11.89;70.58;101894.34;5087901;27;45570;-70
2024/01/27 00:08:53;;;;;;;;;38.75;29.25;;;;;11.75;71.36;101880.59;5086894;27;45832;-69
2024/01/27 00:11:19;;;;;;;;;30.00;23.50;;;;;11.59;70.74;101861.50;5082689;27;45410;-68
2024/01/27 00:13:45;;;;;;;;;30.50;23.00;;;;;11.68;70.78;101888.09;5087835;27;45436;-67
2024/01/27 00:16:11;;;;;;;;;33.25;31.75;;;;;11.45;71.27;101871.31;5087575;27;45440;-69
2024/01/27 00:18:37;;;;;;;;;33.25;30.50;;;;;11.55;71.52;101887.50;5082726;27;45402;-67
2024/01/27 00:21:04;;;;;;;;;39.00;30.50;;;;;11.50;71.17;101872.44;5087592;27;45559;-68
2024/01/27 00:23:30;;;;;;;;;33.75;27.50;;;;;11.50;71.44;101877.66;5084724;27;45956;-68
2024/01/27 00:25:56;;;;;;;;;29.50;25.75;;;;;11.46;71.26;101871.38;5098093;27;45415;-68
2024/01/27 00:28:22;;;;;;;;;34.00;29.25;;;;;11.50;71.29;101868.09;5106382;27;45480;-68
2024/01/27 00:30:47;;;;;;;;;31.50;28.75;;;;;11.50;70.58;101870.72;5101378;27;45912;-69
2024/01/27 00:33:13;;;;;;;;;29.25;28.50;;;;;11.48;70.03;101874.06;5106811;27;46144;-67
2024/01/27 00:35:46;;;;;;;;;28.25;26.00;;;;;11.46;70.17;101873.09;5106994;27;45469;-67
2024/01/27 00:38:12;;;;;;;;;24.25;23.00;;;;;11.37;70.08;101854.34;5101245;27;45863;-67
2024/01/27 00:40:38;;;;;;;;;25.00;22.75;;;;;11.42;70.02;101865.91;5106747;27;45514;-68
2024/01/27 00:43:04;;;;;;;;;27.75;22.50;;;;;11.36;69.83;101861.31;5106686;27;46139;-69
2024/01/27 00:45:30;;;;;;;;;24.75;22.75;;;;;11.12;69.64;101824.38;5101091;27;45481;-68
2024/01/27 00:47:56;;;;;;;;;21.75;20.50;;;;;11.28;70.13;101858.31;5113011;27;45567;-69
2024/01/27 00:50:22;;;;;;;;;25.75;22.75;;;;;11.29;70.41;101856.59;5115782;27;45508;-69
2024/01/27 00:52:48;;;;;;;;;57.25;43.00;;;;;11.28;70.16;101853.09;5108841;27;45442;-69
2024/01/27 00:55:14;;;;;;;;;55.75;43.50;;;;;11.21;69.99;101850.09;5116400;27;45560;-68
2024/01/27 00:57:40;;;;;;;;;33.25;28.50;;;;;11.12;69.99;101840.06;5117949;27;45462;-69
2024/01/27 01:00:09;;;;;;;;;25.00;22.00;;;;;11.05;69.63;101836.28;5118545;27;45442;-69
2024/01/27 01:02:36;;;;;;;;;30.00;22.00;;;;;10.99;69.73;101841.22;5117750;27;46629;-69
2024/01/27 01:05:03;;;;;;;;;27.25;25.50;;;;;10.83;70.01;101802.06;5117912;27;45705;-69
2024/01/27 01:07:30;;;;;;;;;24.75;22.50;;;;;10.92;70.27;101824.34;5117249;27;45430;-68
2024/01/27 01:09:56;;;;;;;;;23.00;22.25;;;;;10.87;70.45;101820.59;5117378;27;45563;-68
2024/01/27 01:12:21;;;;;;;;;21.50;21.00;;;;;10.84;70.39;101819.53;5116008;27;45383;-68
2024/01/27 01:14:47;;;;;;;;;26.00;24.00;;;;;10.80;70.63;101812.38;5117400;27;45496;-68
2024/01/27 01:17:13;;;;;;;;;23.50;21.25;;;;;10.74;71.01;101812.94;5117639;27;45485;-68
2024/01/27 01:19:39;;;;;;;;;24.25;20.00;;;;;10.75;71.16;101806.91;5117323;27;45534;-69
2024/01/27 01:22:05;;;;;;;;;20.50;17.25;;;;;10.60;70.85;101778.28;5117380;27;46268;-68
2024/01/27 01:24:31;;;;;;;;;19.00;17.00;;;;;10.72;70.71;101801.53;5116958;27;45454;-68
2024/01/27 01:26:57;;;;;;;;;24.50;19.75;;;;;10.65;71.13;101800.34;5117803;27;45398;-69
2024/01/27 01:29:23;;;;;;;;;20.00;19.50;;;;;10.61;71.37;101794.91;5116491;27;45368;-68
2024/01/27 01:31:49;;;;;;;;;20.25;18.25;;;;;10.61;71.33;101800.13;5117440;27;45869;-68
2024/01/27 01:34:15;;;;;;;;;19.00;15.50;;;;;10.62;71.36;101805.41;5117450;27;45331;-68
2024/01/27 01:36:40;;;;;;;;;20.25;16.00;;;;;10.65;71.82;101812.50;5117516;27;45582;-69
2024/01/27 01:39:07;;;;;;;;;16.00;14.75;;;;;10.66;71.65;101806.44;5117637;27;45221;-69
2024/01/27 01:41:32;;;;;;;;;21.75;19.00;;;;;10.68;71.42;101800.50;5117512;27;45412;-69
2024/01/27 01:43:58;;;;;;;;;19.50;15.25;;;;;10.63;71.57;101796.75;5115286;27;45362;-69
2024/01/27 01:46:23;;;;;;;;;16.25;15.50;;;;;10.62;71.46;101808.00;5117745;27;45199;-68
2024/01/27 01:48:50;;;;;;;;;21.50;18.00;;;;;10.49;71.03;101777.78;5118031;27;46062;-68
2024/01/27 01:51:16;;;;;;;;;20.75;19.25;;;;;10.64;71.00;101800.25;5118042;27;45454;-68
2024/01/27 01:53:44;;;;;;;;;24.25;19.50;;;;;10.64;71.02;101803.75;5116894;27;45471;-68
2024/01/27 01:56:09;;;;;;;;;25.25;21.00;;;;;10.51;70.55;101785.69;5118168;27;45468;-68
2024/01/27 01:58:35;;;;;;;;;20.00;19.50;;;;;10.58;70.05;101806.06;5118351;27;45548;-69
2024/01/27 02:01:01;;;;;;;;;21.50;20.25;;;;;10.53;70.18;101811.06;5118097;27;46095;-68
2024/01/27 02:03:27;;;;;;;;;19.50;19.00;;;;;10.51;70.70;101806.59;5119970;27;45618;-70
2024/01/27 02:05:53;;;;;;;;;17.25;15.25;;;;;10.54;70.74;101806.72;5121840;27;45640;-68
2024/01/27 02:08:18;;;;;;;;;21.00;20.00;;;;;10.53;70.75;101808.47;5121980;27;45508;-68
2024/01/27 02:10:44;;;;;;;;;24.75;21.50;;;;;10.54;71.06;101794.59;5121580;27;45578;-68
2024/01/27 02:13:20;;;;;;;;;21.00;19.75;;;;;10.55;71.01;101796.38;5121539;27;45412;-69
2024/01/27 02:15:46;;;;;;;;;25.00;17.75;;;;;10.58;70.14;101798.22;5121720;27;45465;-68
2024/01/27 02:18:12;;;;;;;;;21.75;19.50;;;;;10.55;69.97;101793.75;5121726;27;45515;-69
2024/01/27 02:20:38;;;;;;;;;23.50;21.25;;;;;10.53;70.05;101789.28;5121326;27;45568;-68
2024/01/27 02:23:05;;;;;;;;;15.00;15.00;;;;;10.54;70.02;101793.66;5121557;27;45399;-68
2024/01/27 02:25:34;;;;;;;;;19.50;19.00;;;;;10.49;70.44;101779.50;5121994;27;45565;-68
2024/01/27 02:28:02;;;;;;;;;23.00;21.25;;;;;10.50;70.53;101797.88;5122120;27;45419;-69
2024/01/27 02:30:28;;;;;;;;;24.25;22.00;;;;;10.43;70.50;101793.16;5121520;27;45484;-68
2024/01/27 02:32:55;;;;;;;;;18.50;18.50;;;;;10.26;70.66;101760.00;5121021;27;45542;-68
2024/01/27 02:35:21;;;;;;;;;20.25;17.75;;;;;10.45;70.93;101777.56;5121267;27;45522;-68
2024/01/27 02:37:47;;;;;;;;;20.50;18.25;;;;;10.43;70.52;101773.97;5121502;27;45303;-68
2024/01/27 02:40:14;;;;;;;;;20.00;19.00;;;;;10.42;70.22;101777.38;5121376;27;45218;-67
2024/01/27 02:42:41;;;;;;;;;20.00;15.75;;;;;10.38;70.53;101775.44;5121160;27;45388;-67
2024/01/27 02:45:07;;;;;;;;;20.00;19.00;;;;;10.38;70.22;101778.06;5121180;27;45458;-68
2024/01/27 02:47:33;;;;;;;;;16.25;15.75;;;;;10.34;70.21;101771.78;5121411;27;45723;-68
2024/01/27 02:49:58;;;;;;;;;15.00;13.50;;;;;10.35;70.31;101771.84;5121412;27;46181;-68
2024/01/27 02:52:24;;;;;;;;;13.75;13.00;;;;;10.34;70.38;101779.59;5121082;27;45295;-67
2024/01/27 02:54:50;;;;;;;;;13.00;13.00;;;;;10.34;70.58;101769.16;5120988;27;45410;-68
2024/01/27 02:57:16;;;;;;;;;16.00;16.00;;;;;10.30;70.45;101765.50;5121466;27;45237;-67
2024/01/27 02:59:47;;;;;;;;;17.75;15.75;;;;;10.06;70.63;101725.94;5120707;27;46135;-68
2024/01/27 03:02:13;;;;;;;;;19.00;17.75;;;;;10.25;70.40;101760.84;5120944;27;45538;-70
2024/01/27 03:04:39;;;;;;;;;19.25;17.75;;;;;10.22;70.24;101753.72;5121009;27;45353;-67
2024/01/27 03:07:05;;;;;;;;;19.00;17.75;;;;;10.22;70.34;101755.44;5121155;27;45160;-68
2024/01/27 03:09:31;;;;;;;;;19.50;19.50;;;;;10.17;70.16;101747.41;5121105;27;45279;-68
2024/01/27 03:11:57;;;;;;;;;23.25;15.50;;;;;10.11;69.78;101744.47;5120802;27;45255;-68
2024/01/27 03:14:23;;;;;;;;;18.00;15.00;;;;;10.02;69.42;101738.78;5119684;27;45526;-68
2024/01/27 03:16:49;;;;;;;;;18.50;15.50;;;;;9.99;69.59;101742.13;5120860;27;45191;-68
2024/01/27 03:19:15;;;;;;;;;17.25;16.50;;;;;9.95;69.69;101737.56;5120661;27;46189;-67
2024/01/27 03:21:41;;;;;;;;;19.75;17.25;;;;;9.92;69.87;101740.91;5120546;27;45274;-68
2024/01/27 03:24:07;;;;;;;;;26.50;23.00;;;;;9.93;70.32;101744.44;5120885;27;45478;-70
2024/01/27 03:26:32;;;;;;;;;25.50;22.75;;;;;9.94;70.36;101735.75;5121148;27;45483;-70
2024/01/27 03:28:58;;;;;;;;;28.00;24.00;;;;;9.91;70.55;101741.72;5120066;27;45378;-70
2024/01/27 03:31:23;;;;;;;;;24.00;21.25;;;;;9.90;70.51;101728.59;5120505;27;45171;-70
2024/01/27 03:33:49;;;;;;;;;19.00;18.00;;;;;9.89;70.88;101734.66;5120554;27;45273;-70
2024/01/27 03:36:15;;;;;;;;;22.25;19.25;;;;;9.88;71.06;101733.72;5120684;27;45431;-70
2024/01/27 03:38:41;;;;;;;;;25.25;20.00;;;;;9.81;71.02;101735.94;5120438;27;45403;-70
2024/01/27 03:41:07;;;;;;;;;19.75;17.75;;;;;9.56;70.71;101701.63;5120148;27;45548;-70
2024/01/27 03:43:36;;;;;;;;;17.50;14.50;;;;;9.68;70.77;101727.47;5120596;27;45546;-70
2024/01/27 03:46:03;;;;;;;;;14.50;13.00;;;;;9.64;71.08;101722.91;5121010;27;45516;-70
2024/01/27 03:48:28;;;;;;;;;20.75;17.00;;;;;9.45;70.97;101689.75;5120146;27;45282;-70
2024/01/27 03:50:54;;;;;;;;;17.00;15.50;;;;;9.62;71.44;101715.81;5119983;27;45507;-70
2024/01/27 03:53:19;;;;;;;;;18.50;14.75;;;;;9.59;71.37;101703.53;5120176;27;45360;-70
2024/01/27 03:55:45;;;;;;;;;17.25;15.50;;;;;9.57;71.39;101697.34;5120419;27;45491;-70
2024/01/27 03:58:11;;;;;;;;;15.00;12.75;;;;;9.59;71.21;101700.00;5120067;27;45337;-70
2024/01/27 04:00:36;;;;;;;;;14.00;12.50;;;;;9.58;70.72;101693.91;5120394;27;45222;-69
2024/01/27 04:03:02;;;;;;;;;12.50;10.75;;;;;9.54;70.50;101694.56;5120470;27;45820;-70
2024/01/27 04:05:31;;;;;;;;;17.25;13.75;;;;;9.52;70.69;101684.03;5120188;27;45534;-70
2024/01/27 04:07:57;;;;;;;;;16.00;14.00;;;;;9.48;70.07;101686.41;5119900;27;45453;-70
2024/01/27 04:10:23;;;;;;;;;15.75;14.25;;;;;9.33;70.56;101666.53;5119887;27;45310;-70
2024/01/27 04:12:49;;;;;;;;;17.25;13.75;;;;;9.46;70.83;101682.81;5119942;27;45531;-70
2024/01/27 04:15:14;;;;;;;;;16.25;15.25;;;;;9.47;70.50;101684.59;5119881;27;45231;-70
2024/01/27 04:17:41;;;;;;;;;16.25;13.75;;;;;9.44;70.64;101681.84;5119666;27;46196;-70
2024/01/27 04:20:08;;;;;;;;;18.00;14.50;;;;;9.13;71.27;101623.75;5120076;27;45178;-69
2024/01/27 04:22:35;;;;;;;;;16.75;15.75;;;;;9.32;70.70;101662.13;5120165;27;45379;-70
2024/01/27 04:25:01;;;;;;;;;9.50;7.75;;;;;9.25;70.44;101664.31;5119870;27;45491;-70
2024/01/27 04:27:27;;;;;;;;;15.75;13.00;;;;;9.38;70.49;101694.56;5119548;27;46062;-70
2024/01/27 04:29:53;;;;;;;;;17.25;13.25;;;;;9.32;70.27;101675.16;5119281;27;45463;-70
2024/01/27 04:32:19;;;;;;;;;13.00;13.00;;;;;9.35;70.17;101690.06;5119678;27;45302;-70
2024/01/27 04:34:44;;;;;;;;;13.00;13.00;;;;;9.05;70.14;101645.00;5119545;27;45464;-70
2024/01/27 04:37:10;;;;;;;;;13.50;12.25;;;;;9.16;70.45;101660.41;5119272;27;46137;-70
2024/01/27 04:39:37;;;;;;;;;14.00;12.00;;;;;9.32;70.58;101675.16;5119765;27;45301;-70
2024/01/27 04:42:03;;;;;;;;;10.50;10.25;;;;;9.31;70.64;101664.63;5119406;27;45456;-69
2024/01/27 04:44:28;;;;;;;;;12.00;10.50;;;;;9.30;70.91;101658.53;5119288;27;45285;-70
2024/01/27 04:46:54;;;;;;;;;12.50;12.00;;;;;9.32;71.04;101661.22;5119272;27;45479;-70
2024/01/27 04:49:19;;;;;;;;;13.75;13.00;;;;;9.19;70.57;101643.13;5119151;27;45801;-70
2024/01/27 04:51:45;;;;;;;;;13.00;11.75;;;;;9.24;71.34;101654.72;5119223;27;45491;-70
2024/01/27 04:54:10;;;;;;;;;15.00;12.00;;;;;9.21;71.15;101647.63;5119414;27;45444;-70
2024/01/27 04:56:36;;;;;;;;;11.75;9.25;;;;;9.15;71.26;101650.81;5119294;27;46136;-70
2024/01/27 04:59:02;;;;;;;;;13.00;11.00;;;;;9.13;71.61;101651.53;5118996;27;45412;-70
2024/01/27 05:01:28;;;;;;;;;13.00;12.00;;;;;8.91;71.54;101608.69;5119169;27;45480;-70
2024/01/27 05:03:54;;;;;;;;;13.50;12.00;;;;;9.12;71.60;101640.22;5119396;27;45363;-70
2024/01/27 05:06:19;;;;;;;;;14.50;13.25;;;;;9.12;71.43;101642.81;5119072;27;46019;-70
2024/01/27 05:08:45;;;;;;;;;12.25;11.00;;;;;9.09;71.01;101641.75;5118998;27;45454;-70
2024/01/27 05:11:11;;;;;;;;;9.25;9.25;;;;;9.06;70.98;101647.69;5119423;27;45323;-70
2024/01/27 05:13:37;;;;;;;;;12.50;12.25;;;;;9.03;70.86;101636.22;5119454;27;45482;-70
2024/01/27 05:16:03;;;;;;;;;16.00;13.00;;;;;8.75;70.96;101582.59;5118779;27;46078;-70
2024/01/27 05:18:29;;;;;;;;;11.50;10.75;;;;;9.06;70.93;101642.50;5118617;27;45322;-70
2024/01/27 05:20:55;;;;;;;;;9.75;9.75;;;;;9.02;70.46;101632.72;5118873;27;45356;-70
2024/01/27 05:23:20;;;;;;;;;14.00;12.25;;;;;8.95;70.30;101633.19;5119162;27;45408;-70
2024/01/27 05:25:46;;;;;;;;;13.00;13.00;;;;;8.99;70.52;101635.13;5118623;27;46080;-70
2024/01/27 05:28:12;;;;;;;;;13.00;12.25;;;;;8.99;70.60;101629.03;5118889;27;45343;-70
2024/01/27 05:30:37;;;;;;;;;11.75;10.50;;;;;8.92;69.91;101620.91;5118818;27;45562;-69
2024/01/27 05:33:03;;;;;;;;;13.50;12.25;;;;;8.90;70.62;101619.91;5118764;27;45507;-69
2024/01/27 05:35:29;;;;;;;;;16.25;14.75;;;;;8.89;70.09;101614.63;5118370;27;45536;-68
2024/01/27 05:37:55;;;;;;;;;14.00;12.25;;;;;8.86;70.36;101611.88;5117763;27;45307;-70
2024/01/27 05:40:21;;;;;;;;;13.50;13.50;;;;;8.88;70.19;101618.94;5118446;27;45283;-69
2024/01/27 05:42:46;;;;;;;;;13.00;11.75;;;;;8.68;69.76;101598.75;5118741;27;45367;-69
2024/01/27 05:45:12;;;;;;;;;11.50;11.00;;;;;8.67;69.05;101620.38;5118802;27;45987;-70
2024/01/27 05:47:38;;;;;;;;;13.50;11.25;;;;;8.48;69.41;101613.28;5118505;27;45324;-70
2024/01/27 05:50:04;;;;;;;;;16.00;12.25;;;;;8.55;69.77;101615.38;5118553;27;45414;-70
2024/01/27 05:52:30;;;;;;;;;17.50;14.25;;;;;8.52;69.97;101612.63;5118097;27;45539;-69
2024/01/27 05:54:55;;;;;;;;;15.25;13.25;;;;;8.47;70.12;101612.34;5118114;27;45519;-70
2024/01/27 05:57:21;;;;;;;;;11.00;10.25;;;;;8.46;69.94;101612.28;5118140;27;45436;-70
2024/01/27 05:59:46;;;;;;;;;12.25;11.50;;;;;8.42;69.98;101610.31;5118390;27;45474;-69
2024/01/27 06:02:12;;;;;;;;;13.00;12.00;;;;;8.39;70.03;101615.31;5118842;27;45243;-70
2024/01/27 06:04:38;;;;;;;;;11.75;11.50;;;;;8.39;70.32;101623.13;5118222;27;45343;-70
2024/01/27 06:07:03;;;;;;;;;12.25;11.50;;;;;8.40;70.25;101622.34;5118196;27;45410;-70
2024/01/27 06:09:29;;;;;;;;;15.75;13.25;;;;;8.41;70.40;101627.63;5118449;27;45830;-70
2024/01/27 06:11:59;;;;;;;;;17.00;12.75;;;;;8.44;70.04;101614.81;5118219;27;45399;-70
2024/01/27 06:14:25;;;;;;;;;15.50;13.00;;;;;8.47;70.14;101630.56;5117829;27;45997;-70
2024/01/27 06:16:51;;;;;;;;;15.25;14.00;;;;;8.49;69.99;101626.34;5117970;27;45467;-70
2024/01/27 06:19:16;;;;;;;;;65.50;51.50;;;;;8.27;69.51;101586.88;5118201;27;45243;-70
2024/01/27 06:21:42;;;;;;;;;22.25;19.75;;;;;8.41;70.49;101625.03;5118491;27;45428;-70
2024/01/27 06:24:08;;;;;;;;;30.25;25.50;;;;;8.38;70.61;101616.16;5117723;27;45921;-70
2024/01/27 06:26:33;;;;;;;;;39.50;36.75;;;;;8.41;70.68;101614.63;5117715;27;45477;-70
2024/01/27 06:29:00;;;;;;;;;30.00;24.50;;;;;8.40;70.52;101622.34;5117153;27;45502;-68
2024/01/27 06:31:25;;;;;;;;;16.50;16.25;;;;;8.27;70.51;101600.78;5115974;27;45544;-69
2024/01/27 06:33:51;;;;;;;;;24.25;21.25;;;;;8.43;70.74;101626.00;5116559;27;45407;-70
2024/01/27 06:36:17;;;;;;;;;38.25;34.00;;;;;8.47;70.74;101625.38;5117251;27;45319;-68
2024/01/27 06:38:42;;;;;;;;;47.00;40.25;;;;;8.46;70.22;101622.72;5117798;27;45289;-70
2024/01/27 06:41:08;;;;;;;;;36.00;31.25;;;;;8.44;70.54;101620.00;5118159;27;45440;-70
2024/01/27 06:43:33;;;;;;;;;63.00;51.25;;;;;8.44;70.42;101617.41;5117593;27;45445;-70
2024/01/27 06:45:59;;;;;;;;;46.25;41.50;;;;;8.48;70.88;101618.47;5117313;27;45220;-70
2024/01/27 06:48:27;;;;;;;;;33.25;30.00;;;;;8.55;71.10;101624.13;5117685;27;45665;-70
2024/01/27 06:50:53;;;;;;;;;35.00;30.75;;;;;8.59;70.75;101619.06;5119300;27;45527;-69
2024/01/27 06:53:20;;;;;;;;;45.00;37.25;;;;;8.30;70.71;101566.25;5121017;27;45502;-70
2024/01/27 06:55:45;;;;;;;;;60.50;49.00;;;;;8.61;71.02;101618.31;5121034;27;45213;-70
2024/01/27 06:58:11;;;;;;;;;62.50;49.50;;;;;8.66;70.81;101622.09;5121095;27;45536;-70
2024/01/27 07:00:37;;;;;;;;;40.00;35.25;;;;;8.71;71.05;101628.47;5121212;27;45352;-70
2024/01/27 07:03:02;;;;;;;;;35.00;30.00;;;;;8.79;70.71;101622.75;5121111;27;45359;-69
2024/01/27 07:05:28;;;;;;;;;26.00;24.00;;;;;8.81;70.68;101619.41;5120990;27;45155;-70
2024/01/27 07:07:54;;;;;;;;;40.25;31.50;;;;;8.81;70.61;101616.81;5121129;27;45453;-70
2024/01/27 07:10:19;;;;;;;;;35.50;29.00;;;;;8.84;70.50;101619.59;5121216;27;45340;-70
2024/01/27 07:12:45;;;;;;;;;16.00;15.50;;;;;8.79;69.89;101615.81;5121073;27;45427;-70
2024/01/27 07:15:10;;;;;;;;;20.00;19.50;;;;;8.75;70.08;101612.19;5120715;27;45529;-69
2024/01/27 07:17:36;;;;;;;;;18.25;15.00;;;;;8.75;70.06;101619.06;5120995;27;45452;-70
2024/01/27 07:20:02;;;;;;;;;26.25;21.50;;;;;8.74;70.36;101614.69;5120928;27;45475;-69
2024/01/27 07:22:28;;;;;;;;;19.75;17.50;;;;;8.67;70.71;101591.72;5120484;27;45289;-70
2024/01/27 07:24:53;;;;;;;;;36.75;34.75;;;;;8.81;70.92;101611.59;5120718;27;45314;-68
2024/01/27 07:27:19;;;;;;;;;40.00;36.75;;;;;8.83;70.81;101612.56;5120630;27;45242;-70
2024/01/27 07:29:44;;;;;;;;;25.75;22.50;;;;;8.87;70.81;101613.63;5121199;27;45445;-70
2024/01/27 07:32:13;;;;;;;;;41.00;37.25;;;;;8.83;70.50;101614.28;5120494;27;45438;-69
2024/01/27 07:34:41;;;;;;;;;45.50;39.75;;;;;8.83;70.52;101616.91;5120313;27;45480;-70
2024/01/27 07:37:07;;;;;;;;;25.50;21.25;;;;;8.86;70.52;101617.97;5120280;27;45478;-70
2024/01/27 07:39:33;;;;;;;;;24.50;20.50;;;;;8.89;70.27;101617.22;5120420;27;45463;-70
2024/01/27 07:41:59;;;;;;;;;16.00;16.00;;;;;8.76;70.19;101606.16;5120151;27;45486;-70
2024/01/27 07:44:24;;;;;;;;;19.75;17.00;;;;;8.78;70.26;101623.59;5120271;27;45486;-70
2024/01/27 07:46:50;;;;;;;;;27.00;22.00;;;;;8.77;70.17;101622.66;5120447;27;45222;-70
2024/01/27 07:49:16;;;;;;;;;17.75;16.75;;;;;8.75;70.19;101625.22;5120869;27;45244;-70
2024/01/27 07:51:41;;;;;;;;;31.00;29.00;;;;;8.63;70.15;101616.69;5120085;27;45260;-68
2024/01/27 07:54:07;;;;;;;;;27.25;27.00;;;;;8.71;70.25;101633.66;5120252;27;45493;-69
2024/01/27 07:56:33;;;;;;;;;40.00;37.00;;;;;8.65;70.03;101617.69;5120166;27;45310;-69
2024/01/27 07:58:58;;;;;;;;;28.75;25.00;;;;;8.70;70.14;101624.03;5120509;27;45228;-69
2024/01/27 08:01:24;;;;;;;;;38.25;34.75;;;;;8.75;70.21;101633.03;5119487;27;46204;-69
2024/01/27 08:03:49;;;;;;;;;54.00;41.50;;;;;8.75;69.85;101629.50;5120149;27;45403;-70
2024/01/27 08:06:26;;;;;;;;;21.50;20.50;;;;;8.82;69.47;101629.03;5120216;27;45560;-70
2024/01/27 08:08:52;;;;;;;;;60.00;46.50;;;;;8.85;69.88;101633.50;5120220;27;45285;-70
2024/01/27 08:11:18;;;;;;;;;20.75;18.75;;;;;8.86;69.26;101633.59;5120152;27;45364;-70
2024/01/27 08:13:44;;;;;;;;;43.25;38.75;;;;;8.88;69.14;101636.28;5119620;27;45338;-69
2024/01/27 08:16:12;;;;;;;;;38.00;35.75;;;;;8.60;69.17;101590.50;5119814;27;45334;-69
2024/01/27 08:18:43;;;;;;;;;32.25;30.25;;;;;9.02;69.50;101642.25;5119903;27;45383;-69
2024/01/27 08:21:10;;;;;;;;;54.50;43.75;;;;;9.13;69.27;101635.88;5119557;27;45368;-70
2024/01/27 08:23:36;;;;;;;;;32.00;28.75;;;;;9.18;69.53;101637.03;5119775;27;45424;-69
2024/01/27 08:26:02;;;;;;;;;32.75;30.00;;;;;9.28;70.06;101639.31;5119557;27;45362;-70
2024/01/27 08:28:27;;;;;;;;;40.75;35.50;;;;;9.37;69.74;101631.09;5119828;27;45479;-70
2024/01/27 08:30:53;;;;;;;;;35.75;33.50;;;;;9.45;69.74;101636.69;5119373;27;46134;-69
2024/01/27 08:33:19;;;;;;;;;43.75;37.00;;;;;9.41;69.26;101611.25;5119747;27;45294;-70
2024/01/27 08:35:50;;;;;;;;;33.75;33.75;;;;;9.57;69.37;101603.44;5119398;27;45275;-70
2024/01/27 08:38:16;;;;;;;;;29.25;24.75;;;;;9.82;68.58;101642.06;5119541;27;45474;-69
2024/01/27 08:40:41;;;;;;;;;40.75;35.50;;;;;9.90;69.19;101638.13;5119252;27;45989;-70
2024/01/27 08:43:07;;;;;;;;;65.25;49.75;;;;;10.01;68.82;101637.75;5119309;27;45410;-70
2024/01/27 08:45:33;;;;;;;;;46.00;39.25;;;;;9.88;68.13;101600.63;5119425;27;45249;-70
2024/01/27 08:47:58;;;;;;;;;56.00;45.00;;;;;10.28;68.35;101638.22;5119547;27;45198;-70
2024/01/27 08:50:24;;;;;;;;;31.75;30.25;;;;;10.37;67.33;101619.56;5118842;27;46188;-69
2024/01/27 08:52:50;;;;;;;;;55.25;44.75;;;;;10.56;67.77;101630.03;5119318;27;45454;-70
2024/01/27 08:55:18;;;;;;;;;37.75;34.25;;;;;10.75;68.04;101629.19;5119133;27;45458;-69
2024/01/27 08:57:45;;;;;;;;;46.25;37.00;;;;;10.84;66.88;101610.41;5119210;27;45483;-70
2024/01/27 09:00:15;;;;;;;;;41.00;36.50;;;;;11.10;65.98;101629.91;5118919;27;45505;-69
2024/01/27 09:02:40;;;;;;;;;54.00;46.50;;;;;11.14;65.93;101634.44;5119018;27;45431;-70
2024/01/27 09:05:06;;;;;;;;;47.00;39.50;;;;;11.19;65.73;101627.69;5119186;27;45376;-70
2024/01/27 09:07:33;;;;;;;;;23.50;22.25;;;;;11.27;65.60;101628.06;5119424;27;45583;-70
2024/01/27 09:09:58;;;;;;;;;22.50;20.25;;;;;11.32;65.33;101624.81;5118923;27;46070;-70
2024/01/27 09:12:24;;;;;;;;;22.75;22.00;;;;;11.39;65.78;101623.34;5117369;27;45387;-68
2024/01/27 09:14:50;;;;;;;;;20.50;18.00;;;;;11.40;65.37;101614.69;5118722;27;45512;-69
2024/01/27 09:17:16;;;;;;;;;39.25;36.75;;;;;11.40;64.89;101606.84;5118410;27;45462;-69
2024/01/27 09:19:42;;;;;;;;;30.00;30.00;;;;;11.45;64.82;101609.66;5118256;27;45382;-69
2024/01/27 09:22:08;;;;;;;;;28.25;26.00;;;;;11.68;64.58;101587.09;5118147;27;45253;-69
2024/01/27 09:24:33;;;;;;;;;22.00;21.00;;;;;12.25;64.44;101605.16;5118323;27;45460;-70
2024/01/27 09:26:59;;;;;;;;;56.00;46.75;;;;;12.60;62.21;101596.06;5118790;27;45434;-70
2024/01/27 09:29:25;;;;;;;;;24.50;21.75;;;;;12.98;61.90;101595.72;5116023;27;45613;-69
2024/01/27 09:31:51;;;;;;;;;39.50;36.75;;;;;13.49;60.96;101569.59;5118214;27;45416;-69
2024/01/27 09:34:17;;;;;;;;;25.00;23.25;;;;;14.06;60.15;101585.47;5118435;27;45522;-70
2024/01/27 09:36:42;;;;;;;;;24.00;21.75;;;;;14.11;58.86;101589.16;5118736;27;45234;-71
2024/01/27 09:39:08;;;;;;;;;23.50;22.50;;;;;13.87;58.30;101585.75;5118184;27;46128;-70
2024/01/27 09:41:33;;;;;;;;;22.75;22.25;;;;;13.64;59.60;101601.59;5118475;27;45470;-68
2024/01/27 09:44:03;;;;;;;;;20.50;18.25;;;;;13.69;59.87;101597.41;5118410;27;45234;-70
2024/01/27 09:46:30;;;;;;;;;21.00;17.75;;;;;13.80;59.09;101586.38;5117944;27;45579;-69
2024/01/27 09:48:56;;;;;;;;;23.50;22.50;;;;;13.73;58.58;101583.53;5118324;27;45300;-69
2024/01/27 09:51:22;;;;;;;;;20.75;19.50;;;;;13.66;59.36;101571.03;5118136;27;45545;-69
2024/01/27 09:53:51;;;;;;;;;19.25;17.25;;;;;13.57;58.93;101547.13;5117553;27;45648;-68
2024/01/27 09:56:19;;;;;;;;;24.00;22.25;;;;;13.81;59.11;101589.06;5115133;27;45480;-69
2024/01/27 09:58:45;;;;;;;;;24.50;24.25;;;;;13.86;59.88;101570.81;5117200;27;45268;-69
2024/01/27 10:01:12;;;;;;;;;28.75;26.25;;;;;13.96;59.21;101585.16;5117193;27;45494;-71
2024/01/27 10:03:41;;;;;;;;;22.75;22.00;;;;;13.98;59.12;101565.06;5110395;27;45415;-68
2024/01/27 10:06:10;;;;;;;;;22.75;21.00;;;;;14.11;59.19;101583.03;5117506;27;45371;-68
2024/01/27 10:08:37;;;;;;;;;16.25;16.25;;;;;14.22;59.25;101578.09;5114699;27;45497;-68
2024/01/27 10:11:09;;;;;;;;;0.75;0.00;;;;;14.24;58.87;101573.78;5117227;27;45428;-69
2024/01/27 10:13:36;;;;;;;;;15.75;13.75;;;;;14.59;58.54;101589.78;5114567;27;45352;-68
2024/01/27 10:16:04;;;;;;;;;17.50;16.25;;;;;14.62;59.08;101558.31;5117186;27;45467;-71
2024/01/27 10:18:30;;;;;;;;;17.00;16.00;;;;;14.68;57.87;101545.34;5116687;27;45520;-70
2024/01/27 10:20:56;;;;;;;;;21.50;20.25;;;;;15.04;58.50;101586.69;5117305;27;45508;-72
2024/01/27 10:23:22;;;;;;;;;21.50;19.00;;;;;15.20;57.48;101588.94;5117089;27;45403;-67
2024/01/27 10:25:47;;;;;;;;;18.00;16.00;;;;;15.30;57.75;101587.47;5121135;27;45405;-67
2024/01/27 10:28:13;;;;;;;;;17.75;17.25;;;;;15.36;57.34;101589.34;5121369;27;45271;-67
2024/01/27 10:30:39;;;;;;;;;17.00;15.75;;;;;15.46;57.38;101586.13;5121421;27;45907;-67
2024/01/27 10:33:04;;;;;;;;;19.00;19.00;;;;;15.50;57.63;101580.09;5121547;27;45517;-67
2024/01/27 10:35:30;;;;;;;;;24.50;19.25;;;;;15.52;56.31;101575.75;5121355;27;45452;-67
2024/01/27 10:37:56;;;;;;;;;26.00;24.50;;;;;15.51;56.45;101577.47;5121327;27;46154;-69
2024/01/27 10:40:26;;;;;;;;;27.50;23.75;;;;;15.43;57.30;101580.75;5121264;27;45436;-67
2024/01/27 10:43:02;;;;;;;;;22.50;22.00;;;;;15.42;56.74;101571.06;5121161;27;45448;-67
2024/01/27 10:45:34;;;;;;;;;24.50;24.50;;;;;15.53;56.88;101566.97;5121805;27;45237;-68
2024/01/27 10:48:03;;;;;;;;;27.50;26.25;;;;;15.64;57.03;101572.56;5120536;27;45438;-67
2024/01/27 10:50:29;;;;;;;;;23.00;21.50;;;;;15.68;57.18;101566.50;5121069;27;45442;-67
2024/01/27 10:52:58;;;;;;;;;24.00;23.75;;;;;15.59;57.79;101547.81;5120992;27;45460;-67
2024/01/27 10:55:24;;;;;;;;;21.75;20.75;;;;;15.49;56.76;101528.25;5121041;27;45589;-67
2024/01/27 10:57:54;;;;;;;;;24.25;23.00;;;;;15.55;57.63;101567.03;5120948;27;45550;-67
2024/01/27 11:00:19;;;;;;;;;25.00;22.00;;;;;15.46;57.95;101560.69;5120784;27;45350;-69
2024/01/27 11:02:46;;;;;;;;;24.75;23.25;;;;;15.45;58.36;101550.97;5120863;27;45378;-69
2024/01/27 11:05:15;;;;;;;;;23.00;21.25;;;;;15.37;57.95;101563.06;5121114;27;45346;-70
2024/01/27 11:07:41;;;;;;;;;22.25;21.25;;;;;15.27;58.64;101548.75;5120686;27;45378;-67
2024/01/27 11:10:08;;;;;;;;;21.00;19.75;;;;;15.18;58.50;101547.59;5120834;27;45257;-67